^^
Station Historical Data
Daily Summary for February 27, 2017 Units:  Both    English   Metric
« Previous Day
Next Day »
Daily Weekly Monthly Yearly Custom
  High: Low: Average:
Temperature: 85.6 °F /  29.8 °C 62.4 °F /  16.9 °C 72.2 °F /  22.3 °C
Dew Point: 64.2 °F /  17.9 °C 55.8 °F /  13.2 °C 58.6 °F /  14.8 °C
Humidity: 86% 38% 64%
Wind Speed: 12.1mph /  19.5km/h - 2.2mph /  3.5km/h
Wind Gust: 16.0mph /  25.7km/h - -
Wind- - ESE
Pressure: 29.72 in /  1006.3 hPa 29.59 in /  1001.9 hPa -
Precipitation: 0.02 in /  0.51 mm    
Historical Graphs
 
 
Tabular Data for February 27, 2017
Time Temperature Dew Point Pressure Wind Wind Speed Wind Gust Humidity Rainfall Rate (Hourly) solar Conditions
00:02 69.6 °F /  20.9 °C 58.1 °F /  14.5 °C 29.71in /  1006hPa Calm     67% 0.00in /  0mm 0.0 W/m2
00:08 69.6 °F /  20.9 °C 58.6 °F /  14.8 °C 29.72in /  1006.3hPa Calm     68% 0.00in /  0mm 0.0 W/m2
00:14 69.6 °F /  20.9 °C 58.6 °F /  14.8 °C 29.72in /  1006.3hPa Calm     68% 0.00in /  0mm 0.0 W/m2
00:21 69.4 °F /  20.8 °C 58.5 °F /  14.7 °C 29.71in /  1006hPa Calm     68% 0.00in /  0mm 0.0 W/m2
00:27 69.4 °F /  20.8 °C 58.5 °F /  14.7 °C 29.71in /  1006hPa Calm     68% 0.00in /  0mm 0.0 W/m2
00:33 69.3 °F /  20.7 °C 58.3 °F /  14.6 °C 29.71in /  1006hPa Calm     68% 0.00in /  0mm 0.0 W/m2
00:45 69.1 °F /  20.6 °C 58.8 °F /  14.9 °C 29.71in /  1006hPa Calm     70% 0.00in /  0mm 0.0 W/m2
00:51 68.7 °F /  20.4 °C 58.5 °F /  14.7 °C 29.71in /  1006hPa Calm     70% 0.00in /  0mm 0.0 W/m2
00:57 68.5 °F /  20.3 °C 58.3 °F /  14.6 °C 29.71in /  1006hPa Calm     70% 0.00in /  0mm 0.0 W/m2
01:03 68.4 °F /  20.2 °C 58.6 °F /  14.8 °C 29.71in /  1006hPa Calm     71% 0.00in /  0mm 0.0 W/m2
01:09 68.4 °F /  20.2 °C 58.6 °F /  14.8 °C 29.71in /  1006hPa Calm     71% 0.00in /  0mm 0.0 W/m2
01:16 68.2 °F /  20.1 °C 58.8 °F /  14.9 °C 29.71in /  1006hPa Calm     72% 0.00in /  0mm 0.0 W/m2
01:22 68.0 °F /  20 °C 58.6 °F /  14.8 °C 29.71in /  1006hPa Calm     72% 0.00in /  0mm 0.0 W/m2
01:28 68.0 °F /  20 °C 58.6 °F /  14.8 °C 29.71in /  1006hPa Calm     72% 0.00in /  0mm 0.0 W/m2
01:34 68.0 °F /  20 °C 58.6 °F /  14.8 °C 29.70in /  1005.6hPa Calm     72% 0.00in /  0mm 0.0 W/m2
01:40 68.0 °F /  20 °C 58.6 °F /  14.8 °C 29.70in /  1005.6hPa Calm     72% 0.00in /  0mm 0.0 W/m2
01:46 68.0 °F /  20 °C 58.6 °F /  14.8 °C 29.70in /  1005.6hPa Calm     72% 0.00in /  0mm 0.0 W/m2
01:52 68.2 °F /  20.1 °C 58.8 °F /  14.9 °C 29.70in /  1005.6hPa Calm     72% 0.00in /  0mm 0.0 W/m2
01:58 68.2 °F /  20.1 °C 58.8 °F /  14.9 °C 29.70in /  1005.6hPa Calm     72% 0.00in /  0mm 0.0 W/m2
02:05 68.2 °F /  20.1 °C 58.5 °F /  14.7 °C 29.70in /  1005.6hPa Calm     71% 0.00in /  0mm 0.0 W/m2
02:11 68.2 °F /  20.1 °C 58.1 °F /  14.5 °C 29.70in /  1005.6hPa Calm     70% 0.00in /  0mm 0.0 W/m2
02:17 68.4 °F /  20.2 °C 58.3 °F /  14.6 °C 29.70in /  1005.6hPa Calm   1.0mph /  1.6km/h 70% 0.00in /  0mm 0.0 W/m2
02:23 68.4 °F /  20.2 °C 57.7 °F /  14.3 °C 29.70in /  1005.6hPa Calm   1.0mph /  1.6km/h 69% 0.00in /  0mm 0.0 W/m2
02:29 68.4 °F /  20.2 °C 57.7 °F /  14.3 °C 29.70in /  1005.6hPa Calm     69% 0.00in /  0mm 0.0 W/m2
02:36 68.5 °F /  20.3 °C 57.9 °F /  14.4 °C 29.70in /  1005.6hPa Calm     69% 0.00in /  0mm 0.0 W/m2
02:42 68.4 °F /  20.2 °C 57.7 °F /  14.3 °C 29.69in /  1005.3hPa Calm   1.0mph /  1.6km/h 69% 0.00in /  0mm 0.0 W/m2
02:48 68.4 °F /  20.2 °C 58.3 °F /  14.6 °C 29.69in /  1005.3hPa Calm   2.0mph /  3.2km/h 70% 0.00in /  0mm 0.0 W/m2
02:54 68.4 °F /  20.2 °C 58.3 °F /  14.6 °C 29.69in /  1005.3hPa Calm   1.0mph /  1.6km/h 70% 0.00in /  0mm 0.0 W/m2
03:00 68.2 °F /  20.1 °C 58.1 °F /  14.5 °C 29.69in /  1005.3hPa Calm   1.0mph /  1.6km/h 70% 0.00in /  0mm 0.0 W/m2
03:06 68.2 °F /  20.1 °C 58.5 °F /  14.7 °C 29.68in /  1005hPa Calm   1.0mph /  1.6km/h 71% 0.00in /  0mm 0.0 W/m2
03:12 68.2 °F /  20.1 °C 58.1 °F /  14.5 °C 29.68in /  1005hPa Calm     70% 0.00in /  0mm 0.0 W/m2
03:18 68.0 °F /  20 °C 57.9 °F /  14.4 °C 29.68in /  1005hPa Calm   1.0mph /  1.6km/h 70% 0.00in /  0mm 0.0 W/m2
03:24 67.8 °F /  19.9 °C 57.7 °F /  14.3 °C 29.68in /  1005hPa Calm     70% 0.00in /  0mm 0.0 W/m2
03:31 67.8 °F /  19.9 °C 58.1 °F /  14.5 °C 29.68in /  1005hPa Calm     71% 0.00in /  0mm 0.0 W/m2
03:37 67.6 °F /  19.8 °C 57.9 °F /  14.4 °C 29.68in /  1005hPa Calm     71% 0.00in /  0mm 0.0 W/m2
03:43 67.5 °F /  19.7 °C 58.1 °F /  14.5 °C 29.68in /  1005hPa Calm     72% 0.00in /  0mm 0.0 W/m2
03:49 67.3 °F /  19.6 °C 57.9 °F /  14.4 °C 29.68in /  1005hPa Calm     72% 0.00in /  0mm 0.0 W/m2
03:55 66.9 °F /  19.4 °C 57.9 °F /  14.4 °C 29.68in /  1005hPa Calm     73% 0.00in /  0mm 0.0 W/m2
04:01 66.7 °F /  19.3 °C 58.1 °F /  14.5 °C 29.68in /  1005hPa Calm     74% 0.00in /  0mm 0.0 W/m2
04:08 66.4 °F /  19.1 °C 57.9 °F /  14.4 °C 29.68in /  1005hPa Calm     74% 0.00in /  0mm 0.0 W/m2
04:14 66.2 °F /  19 °C 58.1 °F /  14.5 °C 29.67in /  1004.6hPa Calm     75% 0.00in /  0mm 0.0 W/m2
04:20 66.0 °F /  18.9 °C 57.9 °F /  14.4 °C 29.67in /  1004.6hPa Calm     75% 0.00in /  0mm 0.0 W/m2
04:26 65.7 °F /  18.7 °C 57.9 °F /  14.4 °C 29.67in /  1004.6hPa Calm     76% 0.00in /  0mm 0.0 W/m2
04:32 65.5 °F /  18.6 °C 58.1 °F /  14.5 °C 29.67in /  1004.6hPa ENE 0.9mph /  1.4km/h 1.0mph /  1.6km/h 77% 0.00in /  0mm 0.0 W/m2
04:38 65.1 °F /  18.4 °C 57.7 °F /  14.3 °C 29.67in /  1004.6hPa Calm     77% 0.00in /  0mm 0.0 W/m2
04:44 64.9 °F /  18.3 °C 57.9 °F /  14.4 °C 29.67in /  1004.6hPa Calm     78% 0.00in /  0mm 0.0 W/m2
04:51 64.8 °F /  18.2 °C 57.7 °F /  14.3 °C 29.67in /  1004.6hPa Calm     78% 0.00in /  0mm 0.0 W/m2
04:57 64.6 °F /  18.1 °C 57.9 °F /  14.4 °C 29.66in /  1004.3hPa Calm     79% 0.00in /  0mm 0.0 W/m2
05:03 64.2 °F /  17.9 °C 57.6 °F /  14.2 °C 29.66in /  1004.3hPa Calm     79% 0.00in /  0mm 0.0 W/m2
05:09 64.0 °F /  17.8 °C 57.4 °F /  14.1 °C 29.66in /  1004.3hPa Calm     79% 0.00in /  0mm 0.0 W/m2
05:15 64.0 °F /  17.8 °C 57.7 °F /  14.3 °C 29.66in /  1004.3hPa Calm     80% 0.00in /  0mm 0.0 W/m2
05:21 63.9 °F /  17.7 °C 57.6 °F /  14.2 °C 29.66in /  1004.3hPa Calm     80% 0.00in /  0mm 0.0 W/m2
05:28 63.7 °F /  17.6 °C 57.7 °F /  14.3 °C 29.66in /  1004.3hPa Calm     81% 0.00in /  0mm 0.0 W/m2
05:34 63.7 °F /  17.6 °C 58.1 °F /  14.5 °C 29.66in /  1004.3hPa Calm     82% 0.00in /  0mm 0.0 W/m2
05:40 63.3 °F /  17.4 °C 57.7 °F /  14.3 °C 29.66in /  1004.3hPa Calm     82% 0.00in /  0mm 0.0 W/m2
05:46 63.3 °F /  17.4 °C 57.7 °F /  14.3 °C 29.66in /  1004.3hPa Calm     82% 0.00in /  0mm 0.0 W/m2
05:52 63.3 °F /  17.4 °C 58.1 °F /  14.5 °C 29.67in /  1004.6hPa Calm     83% 0.00in /  0mm 0.0 W/m2
05:58 63.1 °F /  17.3 °C 57.9 °F /  14.4 °C 29.67in /  1004.6hPa Calm     83% 0.00in /  0mm 0.0 W/m2
06:04 63.1 °F /  17.3 °C 57.9 °F /  14.4 °C 29.67in /  1004.6hPa Calm     83% 0.00in /  0mm 0.0 W/m2
06:10 63.0 °F /  17.2 °C 58.1 °F /  14.5 °C 29.67in /  1004.6hPa Calm     84% 0.00in /  0mm 0.0 W/m2
06:17 63.0 °F /  17.2 °C 58.1 °F /  14.5 °C 29.67in /  1004.6hPa Calm     84% 0.00in /  0mm 0.0 W/m2
06:23 63.0 °F /  17.2 °C 58.1 °F /  14.5 °C 29.68in /  1005hPa Calm     84% 0.00in /  0mm 0.0 W/m2
06:29 63.0 °F /  17.2 °C 58.5 °F /  14.7 °C 29.68in /  1005hPa Calm     85% 0.00in /  0mm 0.0 W/m2
06:35 62.8 °F /  17.1 °C 58.3 °F /  14.6 °C 29.68in /  1005hPa Calm     85% 0.00in /  0mm 0.0 W/m2
06:41 62.8 °F /  17.1 °C 58.3 °F /  14.6 °C 29.68in /  1005hPa Calm     85% 0.00in /  0mm 0.0 W/m2
06:47 62.6 °F /  17 °C 58.1 °F /  14.5 °C 29.68in /  1005hPa Calm     85% 0.00in /  0mm 0.0 W/m2
06:53 62.4 °F /  16.9 °C 57.9 °F /  14.4 °C 29.68in /  1005hPa Calm     85% 0.00in /  0mm 5.0 W/m2
06:59 62.4 °F /  16.9 °C 58.1 °F /  14.5 °C 29.69in /  1005.3hPa Calm     86% 0.00in /  0mm 9.0 W/m2
07:06 62.4 °F /  16.9 °C 58.1 °F /  14.5 °C 29.68in /  1005hPa Calm   1.0mph /  1.6km/h 86% 0.00in /  0mm 11.0 W/m2
07:12 62.4 °F /  16.9 °C 58.1 °F /  14.5 °C 29.69in /  1005.3hPa Calm   1.0mph /  1.6km/h 86% 0.00in /  0mm 14.0 W/m2
07:18 62.4 °F /  16.9 °C 58.1 °F /  14.5 °C 29.69in /  1005.3hPa Calm     86% 0.00in /  0mm 14.0 W/m2
07:24 62.8 °F /  17.1 °C 58.5 °F /  14.7 °C 29.69in /  1005.3hPa Calm   1.0mph /  1.6km/h 86% 0.00in /  0mm 16.0 W/m2
07:30 63.1 °F /  17.3 °C 58.8 °F /  14.9 °C 29.69in /  1005.3hPa Calm   4.0mph /  6.4km/h 86% 0.00in /  0mm 18.0 W/m2
07:36 63.9 °F /  17.7 °C 59.0 °F /  15 °C 29.69in /  1005.3hPa ESE 0.9mph /  1.4km/h 2.0mph /  3.2km/h 84% 0.00in /  0mm 19.0 W/m2
07:43 64.8 °F /  18.2 °C 59.2 °F /  15.1 °C 29.69in /  1005.3hPa East 0.9mph /  1.4km/h 5.0mph /  8km/h 82% 0.00in /  0mm 21.0 W/m2
07:49 65.5 °F /  18.6 °C 59.5 °F /  15.3 °C 29.69in /  1005.3hPa ESE 4.9mph /  7.9km/h 5.0mph /  8km/h 81% 0.00in /  0mm 21.0 W/m2
07:55 66.2 °F /  19 °C 59.2 °F /  15.1 °C 29.69in /  1005.3hPa ESE 2.0mph /  3.2km/h 7.0mph /  11.3km/h 78% 0.00in /  0mm 23.0 W/m2
08:01 66.9 °F /  19.4 °C 59.2 °F /  15.1 °C 29.69in /  1005.3hPa SE 2.0mph /  3.2km/h 10.0mph /  16.1km/h 76% 0.00in /  0mm 25.0 W/m2
08:07 67.5 °F /  19.7 °C 58.8 °F /  14.9 °C 29.69in /  1005.3hPa NE 4.9mph /  7.9km/h 7.0mph /  11.3km/h 74% 0.00in /  0mm 39.0 W/m2
08:13 68.2 °F /  20.1 °C 58.5 °F /  14.7 °C 29.69in /  1005.3hPa East 4.0mph /  6.4km/h 10.0mph /  16.1km/h 71% 0.00in /  0mm 28.0 W/m2
08:19 68.7 °F /  20.4 °C 58.1 °F /  14.5 °C 29.70in /  1005.6hPa Calm   8.0mph /  12.9km/h 69% 0.00in /  0mm 30.0 W/m2
08:25 69.3 °F /  20.7 °C 58.3 °F /  14.6 °C 29.70in /  1005.6hPa East 8.9mph /  14.3km/h 11.0mph /  17.7km/h 68% 0.00in /  0mm 42.0 W/m2
08:31 69.8 °F /  21 °C 58.3 °F /  14.6 °C 29.70in /  1005.6hPa SE 6.9mph /  11.1km/h 10.0mph /  16.1km/h 67% 0.00in /  0mm 33.0 W/m2
08:38 70.2 °F /  21.2 °C 57.9 °F /  14.4 °C 29.70in /  1005.6hPa East 8.9mph /  14.3km/h 15.0mph /  24.1km/h 65% 0.00in /  0mm 33.0 W/m2
08:44 70.5 °F /  21.4 °C 57.7 °F /  14.3 °C 29.70in /  1005.6hPa South 4.0mph /  6.4km/h 14.0mph /  22.5km/h 64% 0.00in /  0mm 35.0 W/m2
08:50 70.9 °F /  21.6 °C 58.1 °F /  14.5 °C 29.70in /  1005.6hPa ENE 2.0mph /  3.2km/h 5.0mph /  8km/h 64% 0.00in /  0mm 42.0 W/m2
08:56 71.2 °F /  21.8 °C 57.9 °F /  14.4 °C 29.70in /  1005.6hPa ESE 2.0mph /  3.2km/h 16.0mph /  25.7km/h 63% 0.00in /  0mm 485.0 W/m2
09:02 71.4 °F /  21.9 °C 58.6 °F /  14.8 °C 29.70in /  1005.6hPa NE 8.1mph /  13km/h 12.0mph /  19.3km/h 64% 0.00in /  0mm 506.0 W/m2
09:08 71.8 °F /  22.1 °C 58.5 °F /  14.7 °C 29.70in /  1005.6hPa ESE 2.9mph /  4.7km/h 15.0mph /  24.1km/h 63% 0.00in /  0mm 527.0 W/m2
09:14 72.3 °F /  22.4 °C 59.0 °F /  15 °C 29.70in /  1005.6hPa SE 12.1mph /  19.5km/h 13.0mph /  20.9km/h 63% 0.00in /  0mm 547.0 W/m2
09:21 72.7 °F /  22.6 °C 59.7 °F /  15.4 °C 29.70in /  1005.6hPa Calm   12.0mph /  19.3km/h 64% 0.00in /  0mm 573.0 W/m2
09:27 73.0 °F /  22.8 °C 59.2 °F /  15.1 °C 29.71in /  1006hPa ESE 4.9mph /  7.9km/h 11.0mph /  17.7km/h 62% 0.00in /  0mm 598.0 W/m2
09:33 73.6 °F /  23.1 °C 59.4 °F /  15.2 °C 29.71in /  1006hPa SSE 4.9mph /  7.9km/h 15.0mph /  24.1km/h 61% 0.00in /  0mm 615.0 W/m2
09:39 73.9 °F /  23.3 °C 59.2 °F /  15.1 °C 29.71in /  1006hPa ENE 4.0mph /  6.4km/h 11.0mph /  17.7km/h 60% 0.00in /  0mm 163.0 W/m2
09:45 74.5 °F /  23.6 °C 59.2 °F /  15.1 °C 29.71in /  1006hPa SE 6.0mph /  9.7km/h 13.0mph /  20.9km/h 59% 0.00in /  0mm 705.0 W/m2
09:51 74.5 °F /  23.6 °C 59.2 °F /  15.1 °C 29.71in /  1006hPa SSE 6.9mph /  11.1km/h 13.0mph /  20.9km/h 59% 0.00in /  0mm 693.0 W/m2
09:57 74.8 °F /  23.8 °C 59.5 °F /  15.3 °C 29.71in /  1006hPa SSE 2.0mph /  3.2km/h 10.0mph /  16.1km/h 59% 0.00in /  0mm 710.0 W/m2
10:03 75.0 °F /  23.9 °C 58.8 °F /  14.9 °C 29.71in /  1006hPa ESE 4.9mph /  7.9km/h 10.0mph /  16.1km/h 57% 0.00in /  0mm 158.0 W/m2
10:10 75.2 °F /  24 °C 59.0 °F /  15 °C 29.71in /  1006hPa East 8.9mph /  14.3km/h 10.0mph /  16.1km/h 57% 0.00in /  0mm 765.0 W/m2
10:16 76.1 °F /  24.5 °C 58.8 °F /  14.9 °C 29.71in /  1006hPa North 6.9mph /  11.1km/h 9.0mph /  14.5km/h 55% 0.00in /  0mm 842.0 W/m2
10:22 76.5 °F /  24.7 °C 58.6 °F /  14.8 °C 29.71in /  1006hPa NW 2.9mph /  4.7km/h 11.0mph /  17.7km/h 54% 0.00in /  0mm 830.0 W/m2
10:28 76.8 °F /  24.9 °C 57.9 °F /  14.4 °C 29.72in /  1006.3hPa East 8.1mph /  13km/h 13.0mph /  20.9km/h 52% 0.00in /  0mm 816.0 W/m2
10:34 77.2 °F /  25.1 °C 57.7 °F /  14.3 °C 29.72in /  1006.3hPa NE 6.0mph /  9.7km/h 11.0mph /  17.7km/h 51% 0.00in /  0mm 151.0 W/m2
10:40 77.4 °F /  25.2 °C 57.7 °F /  14.3 °C 29.71in /  1006hPa ENE 8.9mph /  14.3km/h 10.0mph /  16.1km/h 51% 0.00in /  0mm 863.0 W/m2
10:46 77.5 °F /  25.3 °C 57.4 °F /  14.1 °C 29.71in /  1006hPa ESE 8.9mph /  14.3km/h 9.0mph /  14.5km/h 50% 0.00in /  0mm 900.0 W/m2
10:52 78.1 °F /  25.6 °C 57.4 °F /  14.1 °C 29.71in /  1006hPa ENE 8.9mph /  14.3km/h 16.0mph /  25.7km/h 49% 0.00in /  0mm 911.0 W/m2
10:59 78.8 °F /  26 °C 58.1 °F /  14.5 °C 29.71in /  1006hPa SE 4.9mph /  7.9km/h 7.0mph /  11.3km/h 49% 0.00in /  0mm 946.0 W/m2
11:05 79.2 °F /  26.2 °C 57.2 °F /  14 °C 29.71in /  1006hPa NE 8.1mph /  13km/h 14.0mph /  22.5km/h 47% 0.00in /  0mm 942.0 W/m2
11:11 78.8 °F /  26 °C 56.8 °F /  13.8 °C 29.70in /  1005.6hPa NNE 6.0mph /  9.7km/h 15.0mph /  24.1km/h 47% 0.00in /  0mm 969.0 W/m2
11:17 79.2 °F /  26.2 °C 57.2 °F /  14 °C 29.71in /  1006hPa East 4.9mph /  7.9km/h 10.0mph /  16.1km/h 47% 0.00in /  0mm 1023.0 W/m2
11:23 79.2 °F /  26.2 °C 57.2 °F /  14 °C 29.70in /  1005.6hPa East 6.9mph /  11.1km/h 7.0mph /  11.3km/h 47% 0.00in /  0mm 262.0 W/m2
11:29 79.2 °F /  26.2 °C 57.2 °F /  14 °C 29.70in /  1005.6hPa NNE 6.9mph /  11.1km/h 13.0mph /  20.9km/h 47% 0.00in /  0mm 244.0 W/m2
11:33 79.0 °F /  26.1 °C 57.6 °F /  14.2 °C 29.70in /  1005.6hPa South 4.9mph /  7.9km/h 13.0mph /  20.9km/h 48% 0.00in /  0mm 1032.0 W/m2
11:46 79.7 °F /  26.5 °C 57.7 °F /  14.3 °C 29.70in /  1005.6hPa ENE 4.0mph /  6.4km/h 9.0mph /  14.5km/h 47% 0.00in /  0mm 1037.0 W/m2
11:52 79.7 °F /  26.5 °C 57.7 °F /  14.3 °C 29.70in /  1005.6hPa NNE 6.0mph /  9.7km/h 12.0mph /  19.3km/h 47% 0.00in /  0mm 155.0 W/m2
11:58 79.0 °F /  26.1 °C 58.1 °F /  14.5 °C 29.70in /  1005.6hPa ESE 2.9mph /  4.7km/h 10.0mph /  16.1km/h 49% 0.00in /  0mm 288.0 W/m2
12:04 78.6 °F /  25.9 °C 58.5 °F /  14.7 °C 29.70in /  1005.6hPa NE 6.0mph /  9.7km/h 7.0mph /  11.3km/h 50% 0.00in /  0mm 316.0 W/m2
12:10 78.6 °F /  25.9 °C 57.9 °F /  14.4 °C 29.70in /  1005.6hPa SE 4.0mph /  6.4km/h 13.0mph /  20.9km/h 49% 0.00in /  0mm 1121.0 W/m2
12:16 79.3 °F /  26.3 °C 57.9 °F /  14.4 °C 29.70in /  1005.6hPa ESE 4.9mph /  7.9km/h 7.0mph /  11.3km/h 48% 0.00in /  0mm 1118.0 W/m2
12:22 79.9 °F /  26.6 °C 57.9 °F /  14.4 °C 29.69in /  1005.3hPa North 0.9mph /  1.4km/h 9.0mph /  14.5km/h 47% 0.00in /  0mm 1121.0 W/m2
12:28 80.8 °F /  27.1 °C 58.1 °F /  14.5 °C 29.69in /  1005.3hPa NE 8.9mph /  14.3km/h 12.0mph /  19.3km/h 46% 0.00in /  0mm 1046.0 W/m2
12:34 81.1 °F /  27.3 °C 57.7 °F /  14.3 °C 29.69in /  1005.3hPa NNE 2.9mph /  4.7km/h 12.0mph /  19.3km/h 45% 0.00in /  0mm 1229.0 W/m2
12:41 81.0 °F /  27.2 °C 56.3 °F /  13.5 °C 29.69in /  1005.3hPa NE 6.9mph /  11.1km/h 15.0mph /  24.1km/h 43% 0.00in /  0mm 1137.0 W/m2
12:47 81.1 °F /  27.3 °C 57.2 °F /  14 °C 29.68in /  1005hPa East 4.0mph /  6.4km/h 13.0mph /  20.9km/h 44% 0.00in /  0mm 1158.0 W/m2
12:53 81.7 °F /  27.6 °C 58.3 °F /  14.6 °C 29.68in /  1005hPa South 2.9mph /  4.7km/h 13.0mph /  20.9km/h 45% 0.00in /  0mm 1083.0 W/m2
12:59 82.2 °F /  27.9 °C 58.1 °F /  14.5 °C 29.68in /  1005hPa SE 6.9mph /  11.1km/h 12.0mph /  19.3km/h 44% 0.00in /  0mm 1171.0 W/m2
13:05 82.2 °F /  27.9 °C 58.1 °F /  14.5 °C 29.68in /  1005hPa North 4.0mph /  6.4km/h 10.0mph /  16.1km/h 44% 0.00in /  0mm 1252.0 W/m2
13:11 81.7 °F /  27.6 °C 57.6 °F /  14.2 °C 29.67in /  1004.6hPa NE 2.9mph /  4.7km/h 10.0mph /  16.1km/h 44% 0.00in /  0mm 264.0 W/m2
13:17 81.0 °F /  27.2 °C 58.3 °F /  14.6 °C 29.67in /  1004.6hPa ESE 4.0mph /  6.4km/h 8.0mph /  12.9km/h 46% 0.00in /  0mm 350.0 W/m2
13:23 81.0 °F /  27.2 °C 57.6 °F /  14.2 °C 29.67in /  1004.6hPa SSE 8.1mph /  13km/h 10.0mph /  16.1km/h 45% 0.00in /  0mm 1151.0 W/m2
13:29 81.9 °F /  27.7 °C 57.7 °F /  14.3 °C 29.67in /  1004.6hPa ESE 4.9mph /  7.9km/h 12.0mph /  19.3km/h 44% 0.00in /  0mm 1211.0 W/m2
13:35 82.6 °F /  28.1 °C 57.7 °F /  14.3 °C 29.67in /  1004.6hPa NE 4.9mph /  7.9km/h 12.0mph /  19.3km/h 43% 0.00in /  0mm 1192.0 W/m2
13:41 82.9 °F /  28.3 °C 58.1 °F /  14.5 °C 29.66in /  1004.3hPa SSE 4.0mph /  6.4km/h 10.0mph /  16.1km/h 43% 0.00in /  0mm 1178.0 W/m2
13:47 83.3 °F /  28.5 °C 57.2 °F /  14 °C 29.66in /  1004.3hPa ESE 6.9mph /  11.1km/h 9.0mph /  14.5km/h 41% 0.00in /  0mm 1106.0 W/m2
13:53 83.7 °F /  28.7 °C 57.4 °F /  14.1 °C 29.65in /  1003.9hPa ENE 2.9mph /  4.7km/h 9.0mph /  14.5km/h 41% 0.00in /  0mm 1130.0 W/m2
14:00 84.2 °F /  29 °C 57.9 °F /  14.4 °C 29.65in /  1003.9hPa NE 8.1mph /  13km/h 10.0mph /  16.1km/h 41% 0.00in /  0mm 1123.0 W/m2
14:05 84.4 °F /  29.1 °C 57.4 °F /  14.1 °C 29.65in /  1003.9hPa North 2.9mph /  4.7km/h 10.0mph /  16.1km/h 40% 0.00in /  0mm 1139.0 W/m2
14:11 84.7 °F /  29.3 °C 57.7 °F /  14.3 °C 29.64in /  1003.6hPa NE 8.1mph /  13km/h 12.0mph /  19.3km/h 40% 0.00in /  0mm 1164.0 W/m2
14:17 84.6 °F /  29.2 °C 58.3 °F /  14.6 °C 29.64in /  1003.6hPa ESE 2.9mph /  4.7km/h 12.0mph /  19.3km/h 41% 0.00in /  0mm 1137.0 W/m2
14:23 84.6 °F /  29.2 °C 58.3 °F /  14.6 °C 29.63in /  1003.3hPa SW 0.9mph /  1.4km/h 9.0mph /  14.5km/h 41% 0.00in /  0mm 220.0 W/m2
14:29 83.7 °F /  28.7 °C 57.4 °F /  14.1 °C 29.63in /  1003.3hPa North 0.9mph /  1.4km/h 13.0mph /  20.9km/h 41% 0.00in /  0mm 204.0 W/m2
14:36 83.5 °F /  28.6 °C 57.9 °F /  14.4 °C 29.63in /  1003.3hPa East 4.9mph /  7.9km/h 9.0mph /  14.5km/h 42% 0.00in /  0mm 1004.0 W/m2
14:42 84.0 °F /  28.9 °C 58.5 °F /  14.7 °C 29.63in /  1003.3hPa ENE 6.0mph /  9.7km/h 6.0mph /  9.7km/h 42% 0.00in /  0mm 977.0 W/m2
14:48 84.7 °F /  29.3 °C 57.7 °F /  14.3 °C 29.62in /  1002.9hPa SE 4.9mph /  7.9km/h 10.0mph /  16.1km/h 40% 0.00in /  0mm 976.0 W/m2
14:54 84.9 °F /  29.4 °C 56.5 °F /  13.6 °C 29.62in /  1002.9hPa NNE 4.0mph /  6.4km/h 7.0mph /  11.3km/h 38% 0.00in /  0mm 962.0 W/m2
15:00 85.3 °F /  29.6 °C 57.6 °F /  14.2 °C 29.62in /  1002.9hPa SE 4.9mph /  7.9km/h 13.0mph /  20.9km/h 39% 0.00in /  0mm 990.0 W/m2
15:06 85.5 °F /  29.7 °C 59.0 °F /  15 °C 29.62in /  1002.9hPa East 2.9mph /  4.7km/h 9.0mph /  14.5km/h 41% 0.00in /  0mm 928.0 W/m2
15:12 85.6 °F /  29.8 °C 58.5 °F /  14.7 °C 29.62in /  1002.9hPa East 2.9mph /  4.7km/h 7.0mph /  11.3km/h 40% 0.00in /  0mm 930.0 W/m2
15:18 84.6 °F /  29.2 °C 56.8 °F /  13.8 °C 29.62in /  1002.9hPa ESE 2.0mph /  3.2km/h 9.0mph /  14.5km/h 39% 0.00in /  0mm 227.0 W/m2
15:24 83.5 °F /  28.6 °C 56.7 °F /  13.7 °C 29.62in /  1002.9hPa East 2.9mph /  4.7km/h 10.0mph /  16.1km/h 40% 0.00in /  0mm 250.0 W/m2
15:30 82.2 °F /  27.9 °C 56.8 °F /  13.8 °C 29.61in /  1002.6hPa NE 0.9mph /  1.4km/h 7.0mph /  11.3km/h 42% 0.00in /  0mm 621.0 W/m2
15:36 82.6 °F /  28.1 °C 57.7 °F /  14.3 °C 29.61in /  1002.6hPa SSE 0.9mph /  1.4km/h 5.0mph /  8km/h 43% 0.00in /  0mm 362.0 W/m2
15:48 83.3 °F /  28.5 °C 57.2 °F /  14 °C 29.60in /  1002.3hPa SE 2.9mph /  4.7km/h 9.0mph /  14.5km/h 41% 0.00in /  0mm 253.0 W/m2
15:54 83.1 °F /  28.4 °C 57.6 °F /  14.2 °C 29.60in /  1002.3hPa Calm   3.0mph /  4.8km/h 42% 0.00in /  0mm 272.0 W/m2
16:00 83.3 °F /  28.5 °C 56.5 °F /  13.6 °C 29.59in /  1001.9hPa East 4.0mph /  6.4km/h 9.0mph /  14.5km/h 40% 0.00in /  0mm 288.0 W/m2
16:06 83.5 °F /  28.6 °C 56.7 °F /  13.7 °C 29.59in /  1001.9hPa NE 0.9mph /  1.4km/h 3.0mph /  4.8km/h 40% 0.00in /  0mm 304.0 W/m2
16:12 84.0 °F /  28.9 °C 56.5 °F /  13.6 °C 29.59in /  1001.9hPa NE 4.9mph /  7.9km/h 7.0mph /  11.3km/h 39% 0.00in /  0mm 809.0 W/m2
16:18 84.4 °F /  29.1 °C 57.4 °F /  14.1 °C 29.59in /  1001.9hPa NE 2.0mph /  3.2km/h 7.0mph /  11.3km/h 40% 0.00in /  0mm 149.0 W/m2
16:24 83.8 °F /  28.8 °C 57.0 °F /  13.9 °C 29.59in /  1001.9hPa Calm   5.0mph /  8km/h 40% 0.00in /  0mm 109.0 W/m2
16:30 83.1 °F /  28.4 °C 57.0 °F /  13.9 °C 29.59in /  1001.9hPa NNE 0.9mph /  1.4km/h 10.0mph /  16.1km/h 41% 0.00in /  0mm 123.0 W/m2
16:36 82.6 °F /  28.1 °C 57.2 °F /  14 °C 29.59in /  1001.9hPa East 6.9mph /  11.1km/h 8.0mph /  12.9km/h 42% 0.00in /  0mm 127.0 W/m2
16:42 81.7 °F /  27.6 °C 55.8 °F /  13.2 °C 29.59in /  1001.9hPa ESE 2.0mph /  3.2km/h 7.0mph /  11.3km/h 41% 0.00in /  0mm 151.0 W/m2
16:48 81.3 °F /  27.4 °C 56.7 °F /  13.7 °C 29.59in /  1001.9hPa NE 0.9mph /  1.4km/h 7.0mph /  11.3km/h 43% 0.00in /  0mm 120.0 W/m2
16:54 81.0 °F /  27.2 °C 58.8 °F /  14.9 °C 29.59in /  1001.9hPa ESE 8.1mph /  13km/h 8.1mph /  13km/h 47% 0.00in /  0mm 107.0 W/m2
17:00 80.4 °F /  26.9 °C 58.3 °F /  14.6 °C 29.59in /  1001.9hPa ESE 2.9mph /  4.7km/h 8.0mph /  12.9km/h 47% 0.00in /  0mm 123.0 W/m2
17:06 79.9 °F /  26.6 °C 58.5 °F /  14.7 °C 29.59in /  1001.9hPa WNW 0.9mph /  1.4km/h 8.0mph /  12.9km/h 48% 0.00in /  0mm 88.0 W/m2
17:12 79.3 °F /  26.3 °C 57.9 °F /  14.4 °C 29.59in /  1001.9hPa ESE 4.9mph /  7.9km/h 8.0mph /  12.9km/h 48% 0.00in /  0mm 54.0 W/m2
17:18 79.2 °F /  26.2 °C 57.7 °F /  14.3 °C 29.59in /  1001.9hPa ESE 6.9mph /  11.1km/h 10.0mph /  16.1km/h 48% 0.00in /  0mm 56.0 W/m2
17:24 78.8 °F /  26 °C 57.4 °F /  14.1 °C 29.59in /  1001.9hPa SSE 0.9mph /  1.4km/h 6.0mph /  9.7km/h 48% 0.00in /  0mm 56.0 W/m2
17:30 78.6 °F /  25.9 °C 57.2 °F /  14 °C 29.59in /  1001.9hPa Calm   4.0mph /  6.4km/h 48% 0.00in /  0mm 60.0 W/m2
17:36 78.4 °F /  25.8 °C 57.7 °F /  14.3 °C 29.59in /  1001.9hPa Calm   3.0mph /  4.8km/h 49% 0.00in /  0mm 60.0 W/m2
17:42 78.4 °F /  25.8 °C 57.2 °F /  14 °C 29.59in /  1001.9hPa NNE 0.9mph /  1.4km/h 3.0mph /  4.8km/h 48% 0.00in /  0mm 60.0 W/m2
17:48 78.4 °F /  25.8 °C 57.7 °F /  14.3 °C 29.59in /  1001.9hPa ESE 4.9mph /  7.9km/h 5.0mph /  8km/h 49% 0.00in /  0mm 70.0 W/m2
17:54 78.3 °F /  25.7 °C 57.6 °F /  14.2 °C 29.60in /  1002.3hPa NE 2.0mph /  3.2km/h 5.0mph /  8km/h 49% 0.00in /  0mm 98.0 W/m2
18:00 78.3 °F /  25.7 °C 57.6 °F /  14.2 °C 29.60in /  1002.3hPa NE 2.9mph /  4.7km/h 4.0mph /  6.4km/h 49% 0.00in /  0mm 90.0 W/m2
18:06 78.3 °F /  25.7 °C 57.6 °F /  14.2 °C 29.60in /  1002.3hPa NNE 2.0mph /  3.2km/h 5.0mph /  8km/h 49% 0.00in /  0mm 102.0 W/m2
18:12 78.3 °F /  25.7 °C 57.6 °F /  14.2 °C 29.60in /  1002.3hPa NNE 2.0mph /  3.2km/h 2.0mph /  3.2km/h 49% 0.00in /  0mm 81.0 W/m2
18:18 78.3 °F /  25.7 °C 58.6 °F /  14.8 °C 29.60in /  1002.3hPa NW 2.9mph /  4.7km/h 6.0mph /  9.7km/h 51% 0.00in /  0mm 86.0 W/m2
18:24 77.5 °F /  25.3 °C 60.6 °F /  15.9 °C 29.60in /  1002.3hPa NNE 2.0mph /  3.2km/h 7.0mph /  11.3km/h 56% 0.00in /  0mm 65.0 W/m2
18:30 76.5 °F /  24.7 °C 59.5 °F /  15.3 °C 29.60in /  1002.3hPa East 6.0mph /  9.7km/h 8.0mph /  12.9km/h 56% 0.00in /  0mm 39.0 W/m2
18:36 75.9 °F /  24.4 °C 59.5 °F /  15.3 °C 29.60in /  1002.3hPa NW 6.9mph /  11.1km/h 7.0mph /  11.3km/h 57% 0.00in /  0mm 33.0 W/m2
18:42 75.6 °F /  24.2 °C 59.7 °F /  15.4 °C 29.61in /  1002.6hPa NNW 0.9mph /  1.4km/h 10.0mph /  16.1km/h 58% 0.00in /  0mm 14.0 W/m2
18:48 75.4 °F /  24.1 °C 59.5 °F /  15.3 °C 29.61in /  1002.6hPa Calm   5.0mph /  8km/h 58% 0.00in /  0mm 11.0 W/m2
18:54 75.0 °F /  23.9 °C 64.2 °F /  17.9 °C 29.62in /  1002.9hPa WSW 2.0mph /  3.2km/h 6.0mph /  9.7km/h 69% 0.01in /  0.25mm 11.0 W/m2
19:00 72.7 °F /  22.6 °C 61.9 °F /  16.6 °C 29.62in /  1002.9hPa West 6.9mph /  11.1km/h 8.0mph /  12.9km/h 69% 0.02in /  0.51mm 12.0 W/m2
19:06 70.9 °F /  21.6 °C 61.9 °F /  16.6 °C 29.62in /  1002.9hPa Calm   2.0mph /  3.2km/h 73% 0.02in /  0.51mm 14.0 W/m2
19:12 69.8 °F /  21 °C 62.6 °F /  17 °C 29.62in /  1002.9hPa Calm     78% 0.02in /  0.51mm 16.0 W/m2
19:18 69.3 °F /  20.7 °C 62.1 °F /  16.7 °C 29.62in /  1002.9hPa Calm   2.0mph /  3.2km/h 78% 0.02in /  0.51mm 18.0 W/m2
19:24 68.7 °F /  20.4 °C 61.9 °F /  16.6 °C 29.63in /  1003.3hPa SW 0.9mph /  1.4km/h 2.0mph /  3.2km/h 79% 0.02in /  0.51mm 11.0 W/m2
19:30 68.7 °F /  20.4 °C 62.2 °F /  16.8 °C 29.63in /  1003.3hPa Calm   2.0mph /  3.2km/h 80% 0.02in /  0.51mm 0.0 W/m2
19:36 68.4 °F /  20.2 °C 62.2 °F /  16.8 °C 29.64in /  1003.6hPa SE 2.9mph /  4.7km/h 3.0mph /  4.8km/h 81% 0.02in /  0.51mm 0.0 W/m2
19:42 68.4 °F /  20.2 °C 62.6 °F /  17 °C 29.64in /  1003.6hPa ESE 2.0mph /  3.2km/h 3.0mph /  4.8km/h 82% 0.02in /  0.51mm 0.0 W/m2
19:48 68.4 °F /  20.2 °C 62.2 °F /  16.8 °C 29.65in /  1003.9hPa ENE 0.9mph /  1.4km/h 3.0mph /  4.8km/h 81% 0.02in /  0.51mm 0.0 W/m2
19:54 68.2 °F /  20.1 °C 62.1 °F /  16.7 °C 29.65in /  1003.9hPa ESE 0.9mph /  1.4km/h 3.0mph /  4.8km/h 81% 0.00in /  0mm 0.0 W/m2
20:00 68.2 °F /  20.1 °C 61.7 °F /  16.5 °C 29.65in /  1003.9hPa East 0.9mph /  1.4km/h 1.0mph /  1.6km/h 80% 0.00in /  0mm 0.0 W/m2
20:06 68.2 °F /  20.1 °C 61.3 °F /  16.3 °C 29.65in /  1003.9hPa Calm     79% 0.00in /  0mm 0.0 W/m2
20:12 68.4 °F /  20.2 °C 61.2 °F /  16.2 °C 29.65in /  1003.9hPa Calm   3.0mph /  4.8km/h 78% 0.00in /  0mm 0.0 W/m2
20:18 68.4 °F /  20.2 °C 60.8 °F /  16 °C 29.65in /  1003.9hPa NNE 0.9mph /  1.4km/h 1.0mph /  1.6km/h 77% 0.00in /  0mm 0.0 W/m2
20:24 68.5 °F /  20.3 °C 61.0 °F /  16.1 °C 29.66in /  1004.3hPa Calm   3.0mph /  4.8km/h 77% 0.00in /  0mm 0.0 W/m2
20:31 68.7 °F /  20.4 °C 60.8 °F /  16 °C 29.67in /  1004.6hPa North 6.9mph /  11.1km/h 7.0mph /  11.3km/h 76% 0.00in /  0mm 0.0 W/m2
20:37 69.1 °F /  20.6 °C 60.1 °F /  15.6 °C 29.68in /  1005hPa NNW 6.9mph /  11.1km/h 10.0mph /  16.1km/h 73% 0.00in /  0mm 0.0 W/m2
20:43 68.7 °F /  20.4 °C 60.4 °F /  15.8 °C 29.68in /  1005hPa NE 2.9mph /  4.7km/h 8.0mph /  12.9km/h 75% 0.00in /  0mm 0.0 W/m2
20:49 68.4 °F /  20.2 °C 60.8 °F /  16 °C 29.68in /  1005hPa North 0.9mph /  1.4km/h 9.0mph /  14.5km/h 77% 0.00in /  0mm 0.0 W/m2
20:55 67.8 °F /  19.9 °C 60.3 °F /  15.7 °C 29.68in /  1005hPa East 4.0mph /  6.4km/h 10.0mph /  16.1km/h 77% 0.00in /  0mm 0.0 W/m2
21:01 67.6 °F /  19.8 °C 60.6 °F /  15.9 °C 29.69in /  1005.3hPa SSE 4.0mph /  6.4km/h 6.0mph /  9.7km/h 78% 0.00in /  0mm 0.0 W/m2
21:07 67.3 °F /  19.6 °C 60.6 °F /  15.9 °C 29.70in /  1005.6hPa Calm   3.0mph /  4.8km/h 79% 0.00in /  0mm 0.0 W/m2
21:13 67.1 °F /  19.5 °C 60.4 °F /  15.8 °C 29.70in /  1005.6hPa Calm   10.0mph /  16.1km/h 79% 0.00in /  0mm 0.0 W/m2
21:19 66.7 °F /  19.3 °C 60.4 °F /  15.8 °C 29.70in /  1005.6hPa NE 4.0mph /  6.4km/h 6.0mph /  9.7km/h 80% 0.00in /  0mm 0.0 W/m2
21:25 66.6 °F /  19.2 °C 60.3 °F /  15.7 °C 29.69in /  1005.3hPa ESE 2.0mph /  3.2km/h 5.0mph /  8km/h 80% 0.00in /  0mm 0.0 W/m2
21:31 66.4 °F /  19.1 °C 60.1 °F /  15.6 °C 29.70in /  1005.6hPa ENE 2.0mph /  3.2km/h 6.0mph /  9.7km/h 80% 0.00in /  0mm 0.0 W/m2
21:37 66.4 °F /  19.1 °C 60.1 °F /  15.6 °C 29.70in /  1005.6hPa Calm   6.0mph /  9.7km/h 80% 0.00in /  0mm 0.0 W/m2
21:43 66.2 °F /  19 °C 59.5 °F /  15.3 °C 29.70in /  1005.6hPa East 0.9mph /  1.4km/h 1.0mph /  1.6km/h 79% 0.00in /  0mm 0.0 W/m2
21:49 66.2 °F /  19 °C 59.5 °F /  15.3 °C 29.70in /  1005.6hPa NE 0.9mph /  1.4km/h 2.0mph /  3.2km/h 79% 0.00in /  0mm 0.0 W/m2
21:55 66.0 °F /  18.9 °C 59.7 °F /  15.4 °C 29.70in /  1005.6hPa NE 0.9mph /  1.4km/h 1.0mph /  1.6km/h 80% 0.00in /  0mm 0.0 W/m2
22:01 66.2 °F /  19 °C 59.5 °F /  15.3 °C 29.70in /  1005.6hPa NNE 0.9mph /  1.4km/h 2.0mph /  3.2km/h 79% 0.00in /  0mm 0.0 W/m2
22:07 66.2 °F /  19 °C 59.5 °F /  15.3 °C 29.70in /  1005.6hPa Calm   2.0mph /  3.2km/h 79% 0.00in /  0mm 0.0 W/m2
22:13 66.2 °F /  19 °C 59.2 °F /  15.1 °C 29.71in /  1006hPa North 0.9mph /  1.4km/h 2.0mph /  3.2km/h 78% 0.00in /  0mm 0.0 W/m2
22:19 66.2 °F /  19 °C 59.2 °F /  15.1 °C 29.71in /  1006hPa NE 0.9mph /  1.4km/h 3.0mph /  4.8km/h 78% 0.00in /  0mm 0.0 W/m2
22:25 66.2 °F /  19 °C 59.2 °F /  15.1 °C 29.71in /  1006hPa NE 2.0mph /  3.2km/h 3.0mph /  4.8km/h 78% 0.00in /  0mm 0.0 W/m2
22:31 66.4 °F /  19.1 °C 59.4 °F /  15.2 °C 29.72in /  1006.3hPa Calm   2.0mph /  3.2km/h 78% 0.00in /  0mm 0.0 W/m2
22:38 66.4 °F /  19.1 °C 59.0 °F /  15 °C 29.72in /  1006.3hPa NE 0.9mph /  1.4km/h 3.0mph /  4.8km/h 77% 0.00in /  0mm 0.0 W/m2
22:44 66.4 °F /  19.1 °C 59.0 °F /  15 °C 29.72in /  1006.3hPa ENE 2.0mph /  3.2km/h 2.0mph /  3.2km/h 77% 0.00in /  0mm 0.0 W/m2
22:50 66.4 °F /  19.1 °C 59.0 °F /  15 °C 29.72in /  1006.3hPa Calm     77% 0.00in /  0mm 0.0 W/m2
22:56 66.4 °F /  19.1 °C 59.0 °F /  15 °C 29.72in /  1006.3hPa Calm   1.0mph /  1.6km/h 77% 0.00in /  0mm 0.0 W/m2
23:02 66.4 °F /  19.1 °C 59.0 °F /  15 °C 29.72in /  1006.3hPa NE 2.0mph /  3.2km/h 2.0mph /  3.2km/h 77% 0.00in /  0mm 0.0 W/m2
23:08 66.6 °F /  19.2 °C 58.8 °F /  14.9 °C 29.72in /  1006.3hPa Calm     76% 0.00in /  0mm 0.0 W/m2
23:14 66.6 °F /  19.2 °C 58.8 °F /  14.9 °C 29.72in /  1006.3hPa Calm     76% 0.00in /  0mm 0.0 W/m2
23:20 66.7 °F /  19.3 °C 59.0 °F /  15 °C 29.72in /  1006.3hPa Calm   2.0mph /  3.2km/h 76% 0.00in /  0mm 0.0 W/m2
23:27 66.7 °F /  19.3 °C 59.4 °F /  15.2 °C 29.72in /  1006.3hPa Calm   2.0mph /  3.2km/h 77% 0.00in /  0mm 0.0 W/m2
23:33 66.7 °F /  19.3 °C 59.0 °F /  15 °C 29.72in /  1006.3hPa Calm   1.0mph /  1.6km/h 76% 0.00in /  0mm 0.0 W/m2
23:39 66.7 °F /  19.3 °C 59.0 °F /  15 °C 29.72in /  1006.3hPa Calm     76% 0.00in /  0mm 0.0 W/m2
23:45 66.9 °F /  19.4 °C 59.2 °F /  15.1 °C 29.72in /  1006.3hPa Calm   1.0mph /  1.6km/h 76% 0.00in /  0mm 0.0 W/m2
23:51 66.9 °F /  19.4 °C 59.2 °F /  15.1 °C 29.72in /  1006.3hPa Calm     76% 0.00in /  0mm 0.0 W/m2
23:57 66.9 °F /  19.4 °C 59.2 °F /  15.1 °C 29.72in /  1006.3hPa Calm   1.0mph /  1.6km/h 76% 0.00in /  0mm 0.0 W/m2
Olympia, Windhoek, Namibia
Compliments of Weather Underground - 3 mb